Time;durP1;ratioP1;P1;durP2;ratioP2;P2;SDS_P1;SDS_P2;PMS_P1;PMS_P2;Temp;Humidity;BMP_temperature;BMP_pressure;BME280_temperature;BME280_humidity;BME280_pressure;Samples;Min_cycle;Max_cycle;Signal;HPM_P1;HPM_P2
2023/10/17 00:01:44;;;;;;;;;30.50;26.00;;;;;1.39;100.00;100075.09;6279119;20;2500353;-41
2023/10/17 00:06:53;;;;;;;;;20.00;18.33;;;;;0.84;100.00;100059.28;6280679;20;3558584;-41
2023/10/17 00:09:22;;;;;;;;;37.50;29.00;;;;;1.36;100.00;100067.22;6313450;20;2854477;-43
2023/10/17 00:14:44;;;;;;;;;33.00;26.33;;;;;1.44;100.00;100070.59;6280299;20;3586768;-42
2023/10/17 00:17:16;;;;;;;;;33.50;26.00;;;;;1.75;99.98;100070.91;6277324;20;2500303;-42
2023/10/17 00:19:45;;;;;;;;;27.00;20.67;;;;;2.09;98.51;100073.75;6281877;20;3575258;-41
2023/10/17 00:22:18;;;;;;;;;20.00;18.50;;;;;1.72;98.64;100068.31;6314297;20;2827787;-41
2023/10/17 00:24:48;;;;;;;;;24.00;19.67;;;;;1.73;98.89;100070.03;6282299;20;3562934;-42
2023/10/17 00:27:16;;;;;;;;;28.50;24.50;;;;;2.11;98.61;100073.72;6297868;20;2848223;-43
2023/10/17 00:29:45;;;;;;;;;30.33;25.33;;;;;1.95;98.44;100073.16;6280294;20;3591918;-43
2023/10/17 00:32:14;;;;;;;;;26.00;24.50;;;;;1.93;97.99;100073.19;6279073;20;2839847;-42
2023/10/17 00:34:46;;;;;;;;;31.00;31.00;;;;;1.72;98.74;100068.31;6282207;20;2850404;-43
2023/10/17 00:37:15;;;;;;;;;38.00;30.00;;;;;1.81;98.55;100065.47;6279128;20;2866936;-41
2023/10/17 00:39:46;;;;;;;;;29.50;27.00;;;;;1.72;98.35;100063.88;6280228;20;2856533;-42
2023/10/17 00:42:29;;;;;;;;;34.00;29.50;;;;;1.39;99.37;100062.75;6279644;20;2500362;-42
2023/10/17 00:44:58;;;;;;;;;30.50;26.50;;;;;1.22;100.00;100055.13;6282277;20;2850315;-42
2023/10/17 00:47:27;;;;;;;;;22.00;16.50;;;;;1.03;100.00;100054.56;6274988;20;2808839;-41
2023/10/17 00:49:59;;;;;;;;;26.50;21.00;;;;;1.13;100.00;100062.31;6285389;20;2833599;-42
2023/10/17 00:52:34;;;;;;;;;29.00;23.00;;;;;1.21;100.00;100057.78;6279331;20;2842990;-43
2023/10/17 00:55:04;;;;;;;;;55.50;42.50;;;;;1.39;100.00;100061.88;6276424;20;2858855;-41
2023/10/17 00:57:36;;;;;;;;;50.00;41.50;;;;;1.40;98.34;100056.56;6276893;20;2861777;-43
2023/10/17 01:00:35;;;;;;;;;44.00;37.00;;;;;0.96;100.00;100058.19;6275202;20;2866907;-41
2023/10/17 01:03:10;;;;;;;;;49.00;38.50;;;;;0.59;100.00;100057.91;6280927;20;2861789;-42
2023/10/17 01:08:46;;;;;;;;;37.00;34.50;;;;;1.25;98.58;100054.19;6281849;20;2858732;-43
2023/10/17 01:11:21;;;;;;;;;44.00;39.50;;;;;1.71;97.84;100048.03;6277821;20;2840991;-41
2023/10/17 01:13:52;;;;;;;;;46.00;36.33;;;;;1.53;97.41;100046.63;6277337;20;2866003;-40
2023/10/17 01:16:25;;;;;;;;;37.50;28.00;;;;;1.43;98.10;100047.69;6307835;20;2500430;-40
2023/10/17 01:19:00;;;;;;;;;30.00;24.50;;;;;1.51;98.32;100054.59;6277259;20;2500272;-42
2023/10/17 01:21:29;;;;;;;;;22.33;20.67;;;;;1.84;97.74;100049.53;6281108;20;3569072;-40
2023/10/17 01:23:58;;;;;;;;;21.50;21.50;;;;;1.63;98.04;100039.38;6278414;20;3507689;-44
2023/10/17 01:26:26;;;;;;;;;29.00;22.00;;;;;1.43;99.76;100040.63;6307741;20;2500386;-41
2023/10/17 01:28:55;;;;;;;;;20.67;19.00;;;;;1.24;100.00;100041.88;6277025;20;3558596;-42
2023/10/17 01:31:24;;;;;;;;;17.67;17.00;;;;;1.32;100.00;100050.53;6312260;20;3547263;-42
2023/10/17 01:33:55;;;;;;;;;23.67;18.33;;;;;1.08;100.00;100047.44;6310207;20;3558618;-41
2023/10/17 01:36:23;;;;;;;;;27.00;20.50;;;;;1.02;100.00;100046.66;6308990;20;2827369;-41
2023/10/17 01:38:54;;;;;;;;;17.00;16.80;;;;;0.49;100.00;100046.59;6299463;20;2816952;-41
2023/10/17 01:41:25;;;;;;;;;26.00;22.00;;;;;0.24;100.00;100045.19;6280041;20;3583756;-41
2023/10/17 01:43:53;;;;;;;;;28.00;21.50;;;;;-0.28;100.00;100052.91;6311767;20;2837828;-43
2023/10/17 01:46:23;;;;;;;;;24.50;24.50;;;;;-0.46;100.00;100047.81;6279484;20;2850415;-40
2023/10/17 01:48:55;;;;;;;;;29.00;27.00;;;;;-0.25;100.00;100052.84;6278615;20;2844066;-41
2023/10/17 01:51:25;;;;;;;;;84.67;61.33;;;;;0.15;100.00;100047.06;6275370;20;3654525;-41
2023/10/17 01:53:54;;;;;;;;;55.50;44.50;;;;;0.11;100.00;100044.50;6301943;20;2853403;-41
2023/10/17 01:56:26;;;;;;;;;46.50;41.00;;;;;0.22;100.00;100046.09;6270272;20;2865943;-41
2023/10/17 01:58:55;;;;;;;;;31.00;23.00;;;;;0.71;100.00;100052.44;6267925;20;2498401;-40
2023/10/17 02:01:31;;;;;;;;;25.67;22.00;;;;;1.21;100.00;100048.09;6274727;20;3573253;-41
2023/10/17 02:04:03;;;;;;;;;22.00;21.00;;;;;1.17;100.00;100050.81;6271295;20;2500322;-40
2023/10/17 02:06:35;;;;;;;;;32.00;29.50;;;;;1.23;100.00;100055.97;6269747;20;2500408;-41
2023/10/17 02:09:22;;;;;;;;;7.00;3.33;;;;;1.17;100.00;100061.38;6277901;20;2742106;-42
2023/10/17 02:11:54;;;;;;;;;25.00;23.00;;;;;1.34;99.61;100063.72;6307233;20;3577505;-40
2023/10/17 02:14:24;;;;;;;;;24.33;21.00;;;;;1.39;99.52;100062.75;6310289;20;3573204;-40
2023/10/17 02:16:52;;;;;;;;;32.50;22.50;;;;;0.98;100.00;100059.06;6278625;20;2860781;-41
2023/10/17 02:19:25;;;;;;;;;23.00;20.00;;;;;0.41;100.00;100061.69;6276672;20;3550306;-40
2023/10/17 02:21:54;;;;;;;;;27.00;21.00;;;;;0.45;100.00;100071.31;6305878;20;3582666;-40
2023/10/17 02:24:23;;;;;;;;;62.50;51.50;;;;;0.26;100.00;100077.75;6276758;20;2856766;-40
2023/10/17 02:26:56;;;;;;;;;52.33;44.00;;;;;0.67;100.00;100078.94;6275066;20;2862294;-40
2023/10/17 02:29:29;;;;;;;;;50.00;42.00;;;;;0.69;100.00;100080.66;6308356;20;2867046;-41
2023/10/17 02:31:58;;;;;;;;;40.33;35.33;;;;;0.75;100.00;100080.56;6310066;20;3606503;-40
2023/10/17 02:34:30;;;;;;;;;39.50;38.00;;;;;0.26;100.00;100075.97;6276776;20;2859816;-40
2023/10/17 02:37:03;;;;;;;;;57.50;46.50;;;;;0.93;100.00;100079.41;6274260;20;2865910;-40
2023/10/17 02:39:37;;;;;;;;;85.00;68.00;;;;;1.07;100.00;100077.41;6280184;20;2877397;-41
2023/10/17 02:42:07;;;;;;;;;76.67;56.67;;;;;1.59;100.00;100087.97;6311035;20;2880512;-41
2023/10/17 02:44:39;;;;;;;;;58.50;44.50;;;;;1.94;99.25;100077.56;6314723;20;2872240;-40
2023/10/17 02:47:11;;;;;;;;;33.50;25.00;;;;;1.44;98.04;100076.75;6277723;20;2498207;-40
2023/10/17 02:49:43;;;;;;;;;40.50;35.00;;;;;1.74;98.29;100075.31;6279391;20;2500275;-41
2023/10/17 02:52:16;;;;;;;;;42.00;32.50;;;;;1.71;97.72;100074.50;6281732;20;2500341;-41
2023/10/17 02:54:59;;;;;;;;;38.00;30.00;;;;;1.45;98.69;100070.59;6282364;20;2500403;-40
2023/10/17 02:57:33;;;;;;;;;38.00;31.00;;;;;1.66;97.98;100073.72;6279260;20;2858741;-40
2023/10/17 03:00:20;;;;;;;;;28.00;25.00;;;;;1.63;98.38;100071.13;6282018;20;2846151;-40
2023/10/17 03:02:55;;;;;;;;;20.33;18.33;;;;;1.37;99.34;100076.88;6277854;20;2808896;-41
2023/10/17 03:05:25;;;;;;;;;29.00;22.00;;;;;1.39;99.86;100081.25;6314461;20;3585723;-41
2023/10/17 03:07:53;;;;;;;;;30.00;25.50;;;;;1.24;100.00;100084.19;6279341;20;2500321;-41
2023/10/17 03:10:37;;;;;;;;;28.50;26.00;;;;;1.14;100.00;100082.59;6281057;20;2500320;-41
2023/10/17 03:15:57;;;;;;;;;29.00;25.00;;;;;1.42;99.98;100086.53;6281330;20;2500240;-40
2023/10/17 03:18:29;;;;;;;;;37.75;30.25;;;;;0.40;100.00;100086.38;6320535;20;1910803;-41
2023/10/17 03:21:00;;;;;;;;;42.00;34.00;;;;;0.55;100.00;100083.47;6311402;20;2852353;-42
2023/10/17 03:23:29;;;;;;;;;40.00;33.00;;;;;0.82;100.00;100087.50;6283656;20;2851329;-41
2023/10/17 03:26:00;;;;;;;;;31.67;25.33;;;;;1.54;100.00;100082.75;6282190;20;3573158;-43
2023/10/17 03:28:34;;;;;;;;;37.50;32.00;;;;;1.14;100.00;100086.13;6315407;20;2846079;-42
2023/10/17 03:31:10;;;;;;;;;45.67;34.67;;;;;1.06;100.00;100091.53;6283599;20;2880000;-41
2023/10/17 03:33:42;;;;;;;;;33.00;26.50;;;;;1.25;100.00;100091.22;6311974;20;2857539;-41
2023/10/17 03:36:40;;;;;;;;;30.00;28.00;;;;;1.31;100.00;100085.81;6278256;20;2498244;-41
2023/10/17 03:39:18;;;;;;;;;34.00;30.00;;;;;0.91;100.00;100078.53;6278932;20;2500263;-42
2023/10/17 03:41:46;;;;;;;;;30.00;24.00;;;;;1.29;100.00;100083.22;6280272;20;2500404;-42
2023/10/17 03:44:18;;;;;;;;;30.00;21.00;;;;;1.68;100.00;100077.19;6284707;20;2844062;-41
2023/10/17 03:46:47;;;;;;;;;21.50;20.50;;;;;0.87;100.00;100074.22;6281933;20;2831591;-41
2023/10/17 03:49:18;;;;;;;;;26.50;26.50;;;;;0.71;100.00;100088.53;6281704;20;2500375;-41
2023/10/17 03:51:52;;;;;;;;;34.50;30.00;;;;;0.13;100.00;100085.84;6280793;20;2848287;-41
2023/10/17 03:54:23;;;;;;;;;37.50;29.00;;;;;0.19;100.00;100080.47;6280258;20;2500504;-41
2023/10/17 03:57:02;;;;;;;;;38.00;32.00;;;;;-0.14;100.00;100072.97;6278309;20;2846141;-40
2023/10/17 03:59:37;;;;;;;;;33.00;28.00;;;;;-0.01;100.00;100078.06;6276909;20;2500309;-42
2023/10/17 04:02:12;;;;;;;;;33.67;27.00;;;;;-0.05;100.00;100080.78;6281519;20;3598195;-41
2023/10/17 04:04:54;;;;;;;;;35.00;28.00;;;;;0.31;100.00;100081.19;6278980;20;2854615;-42
2023/10/17 04:07:31;;;;;;;;;44.00;36.00;;;;;0.91;100.00;100086.47;6273917;20;2506564;-41
2023/10/17 04:12:37;;;;;;;;;55.50;45.50;;;;;-0.23;100.00;100080.09;6278642;20;2868003;-41
2023/10/17 04:15:09;;;;;;;;;34.67;32.33;;;;;0.09;100.00;100088.53;6280626;20;3601347;-40
2023/10/17 04:17:38;;;;;;;;;25.00;20.00;;;;;0.96;100.00;100079.34;6282252;20;3566942;-43
2023/10/17 04:20:11;;;;;;;;;36.00;31.50;;;;;0.55;100.00;100083.47;6311111;20;2861810;-41
2023/10/17 04:22:43;;;;;;;;;40.50;37.50;;;;;0.71;100.00;100081.50;6280849;20;2871174;-41
2023/10/17 04:27:59;;;;;;;;;38.00;29.00;;;;;0.56;100.00;100079.09;6281280;20;3602337;-41
2023/10/17 04:30:46;;;;;;;;;24.67;21.67;;;;;0.79;100.00;100065.50;6280923;20;3579525;-41
2023/10/17 04:33:19;;;;;;;;;82.00;65.00;;;;;0.60;100.00;100079.00;6283409;20;2890038;-41
2023/10/17 04:35:55;;;;;;;;;32.00;22.00;;;;;-0.12;100.00;100074.69;6312222;20;2846122;-41
2023/10/17 04:46:17;;;;;;;;;27.00;22.00;;;;;0.22;100.00;100075.16;6278753;20;2835754;-41
2023/10/17 04:48:47;;;;;;;;;36.50;31.00;;;;;0.08;100.00;100077.09;6276193;20;2500353;-42
2023/10/17 04:53:50;;;;;;;;;36.50;31.00;;;;;0.60;100.00;100071.06;6308741;20;2500351;-42
2023/10/17 04:56:37;;;;;;;;;42.50;35.00;;;;;0.69;100.00;100082.44;6275833;20;2500264;-43
2023/10/17 04:59:09;;;;;;;;;50.33;42.67;;;;;0.24;100.00;100087.44;6276429;20;2888016;-41
2023/10/17 05:01:52;;;;;;;;;57.00;43.50;;;;;0.42;100.00;100084.56;6307863;20;2877356;-41
2023/10/17 05:04:33;;;;;;;;;63.50;43.50;;;;;0.64;100.00;100093.94;6280289;20;2861879;-41
2023/10/17 06:19:21;;;;;;;;;76.00;55.00;;;;;13.80;46.56;100180.53;6278450;20;2885708;-43
2023/10/17 06:22:49;;;;;;;;;62.67;48.00;;;;;9.02;56.02;100173.69;6277319;20;3636701;-44
2023/10/17 06:30:06;;;;;;;;;79.33;59.00;;;;;5.34;77.45;100174.91;6310666;20;3653495;-43
2023/10/17 06:35:23;;;;;;;;;77.00;56.75;;;;;11.70;52.96;100193.63;6313405;20;3656002;-44
2023/10/17 06:37:52;;;;;;;;;37.00;32.00;;;;;15.27;44.48;100193.72;6308986;20;2858769;-44
2023/10/17 06:40:30;;;;;;;;;40.00;30.00;;;;;14.72;42.29;100200.41;6310359;20;3609626;-44
2023/10/17 06:43:12;;;;;;;;;31.67;26.33;;;;;13.46;45.84;100199.94;6275600;20;3609659;-43
2023/10/17 06:45:55;;;;;;;;;28.00;26.33;;;;;15.39;42.83;100208.19;6277443;20;3597215;-44
2023/10/17 06:48:31;;;;;;;;;25.00;22.00;;;;;15.69;41.29;100198.81;6280172;20;2845142;-44
2023/10/17 06:53:52;;;;;;;;;14.00;11.00;;;;;10.29;52.48;100191.53;6274887;20;3413220;-45
2023/10/17 06:56:21;;;;;;;;;21.50;20.00;;;;;6.61;68.29;100186.53;6307648;20;2837827;-44
2023/10/17 06:59:03;;;;;;;;;20.50;18.50;;;;;6.48;72.12;100187.91;6275798;20;2840924;-44
2023/10/17 07:01:33;;;;;;;;;20.50;18.00;;;;;6.88;74.04;100194.44;6274999;20;2839870;-44
2023/10/17 07:04:03;;;;;;;;;26.00;24.50;;;;;6.89;75.32;100185.47;6273818;20;2846293;-44
2023/10/17 07:06:38;;;;;;;;;64.50;52.00;;;;;6.94;74.12;100188.84;6276610;20;2862877;-44
2023/10/17 07:09:16;;;;;;;;;21.50;18.50;;;;;7.07;74.43;100182.09;6277568;20;2836804;-45
2023/10/17 07:11:47;;;;;;;;;23.33;20.00;;;;;7.12;75.47;100189.94;6291103;20;3585696;-44
2023/10/17 07:14:25;;;;;;;;;25.00;24.00;;;;;6.71;76.92;100177.22;6302921;20;2847276;-44
2023/10/17 07:16:57;;;;;;;;;21.00;20.00;;;;;7.47;73.60;100183.16;6274236;20;2835698;-44
2023/10/17 07:24:33;;;;;;;;;20.50;17.00;;;;;7.56;73.52;100182.81;6305028;20;2500427;-44
2023/10/17 07:27:18;;;;;;;;;18.67;18.33;;;;;7.83;73.19;100175.44;6281906;20;3555453;-44
2023/10/17 07:30:03;;;;;;;;;53.50;44.50;;;;;7.80;73.47;100177.38;6282539;20;2855611;-43
2023/10/17 07:32:44;;;;;;;;;22.33;19.00;;;;;8.01;73.17;100179.13;6282460;20;3573268;-45
2023/10/17 07:35:16;;;;;;;;;17.00;17.00;;;;;8.41;72.59;100188.09;6314577;20;2500745;-44
2023/10/17 07:37:57;;;;;;;;;21.00;16.00;;;;;8.65;70.86;100175.41;6284536;20;2496105;-44
2023/10/17 07:40:31;;;;;;;;;22.50;21.50;;;;;8.58;71.76;100179.31;6285722;20;2838894;-44
2023/10/17 07:43:01;;;;;;;;;17.00;17.00;;;;;8.34;73.62;100175.91;6281919;20;2500462;-44
2023/10/17 07:45:39;;;;;;;;;22.33;22.33;;;;;8.10;75.00;100173.34;6283953;20;2855662;-44
2023/10/17 07:48:25;;;;;;;;;16.00;16.00;;;;;8.42;73.15;100179.13;6319418;20;2732641;-44
2023/10/17 07:50:57;;;;;;;;;16.50;14.00;;;;;8.55;73.40;100183.00;6286020;20;2814977;-44
2023/10/17 07:53:32;;;;;;;;;22.33;22.33;;;;;8.73;71.97;100183.97;6284562;20;2854905;-44
2023/10/17 07:56:12;;;;;;;;;14.50;14.50;;;;;8.91;71.79;100179.56;6313486;20;2496129;-46
2023/10/17 07:58:45;;;;;;;;;15.67;12.67;;;;;9.41;67.82;100181.63;6280797;20;2788961;-43
2023/10/17 08:01:16;;;;;;;;;13.00;12.50;;;;;9.36;67.84;100183.66;6320410;20;2784689;-45
2023/10/17 08:03:54;;;;;;;;;14.50;13.00;;;;;9.38;68.23;100189.84;6290066;20;2798160;-45
2023/10/17 08:06:36;;;;;;;;;13.60;11.40;;;;;9.64;67.26;100182.34;6304371;20;2787785;-44
2023/10/17 08:09:16;;;;;;;;;12.00;12.00;;;;;8.91;67.57;100187.59;6290096;20;2782540;-46
2023/10/17 08:11:59;;;;;;;;;12.00;10.50;;;;;8.92;68.60;100186.66;6289905;20;2783703;-44
2023/10/17 08:14:34;;;;;;;;;12.00;11.50;;;;;9.66;66.65;100184.00;6285696;20;2792105;-45
2023/10/17 08:17:03;;;;;;;;;21.00;19.50;;;;;10.04;66.08;100180.31;6283130;20;2824348;-44
2023/10/17 08:20:00;;;;;;;;;23.67;22.67;;;;;9.89;65.29;100187.31;6285011;20;3602385;-48
2023/10/17 08:22:25;;;;;;;;;14.80;14.40;;;;;9.56;68.34;100187.22;6303028;20;2804560;-47
2023/10/17 08:24:57;;;;;;;;;9.33;9.33;;;;;8.71;68.79;100182.28;6283975;20;2775366;-45
2023/10/17 08:30:14;;;;;;;;;13.00;11.00;;;;;9.83;66.29;100174.22;6283822;20;2789870;-45
2023/10/17 08:33:10;;;;;;;;;13.00;11.00;;;;;10.12;65.11;100186.16;6283188;20;2791968;-44
2023/10/17 08:35:40;;;;;;;;;13.00;12.00;;;;;10.08;64.91;100192.59;6314705;20;2799472;-48
2023/10/17 08:38:12;;;;;;;;;11.00;10.00;;;;;9.54;66.73;100186.41;6315627;20;2795225;-45
2023/10/17 08:40:40;;;;;;;;;13.50;13.50;;;;;9.93;66.72;100188.03;6285203;20;2795020;-45
2023/10/17 08:43:15;;;;;;;;;13.00;13.00;;;;;10.12;64.57;100183.47;6283379;20;3508655;-44
2023/10/17 08:45:50;;;;;;;;;13.67;13.67;;;;;9.85;64.69;100189.28;6311367;20;3534710;-44
2023/10/17 08:48:19;;;;;;;;;16.00;14.00;;;;;10.72;62.57;100183.88;6311660;20;2808702;-44
2023/10/17 08:50:53;;;;;;;;;10.00;10.00;;;;;10.37;62.34;100187.56;6279983;20;2792047;-45
2023/10/17 08:53:23;;;;;;;;;15.50;13.00;;;;;10.46;61.85;100181.72;6312175;20;2809895;-44
2023/10/17 08:55:52;;;;;;;;;12.00;12.00;;;;;10.19;63.60;100179.53;6284684;20;2802426;-45
2023/10/17 08:58:24;;;;;;;;;14.00;14.00;;;;;11.12;60.26;100180.81;6290005;20;2739870;-44
2023/10/17 09:00:56;;;;;;;;;14.50;14.50;;;;;10.98;59.82;100178.91;6283613;20;2796093;-46
2023/10/17 09:03:31;;;;;;;;;10.00;10.00;;;;;11.29;59.23;100183.41;6289834;20;2785840;-44
2023/10/17 09:08:56;;;;;;;;;16.00;11.33;;;;;10.71;59.90;100178.56;6282730;20;3529436;-45
2023/10/17 09:11:33;;;;;;;;;19.40;11.60;;;;;10.61;57.30;100174.66;6337460;20;2813834;-44
2023/10/17 09:14:24;;;;;;;;;14.67;10.00;;;;;11.29;54.43;100171.78;6284354;20;2785723;-44
2023/10/17 09:17:10;;;;;;;;;11.50;10.00;;;;;11.50;54.90;100170.56;6317059;20;2794047;-46
2023/10/17 09:19:46;;;;;;;;;11.00;9.67;;;;;11.42;54.38;100175.50;6281177;20;2788861;-45
2023/10/17 09:22:24;;;;;;;;;10.00;10.00;;;;;10.94;55.57;100171.94;6313884;20;2777481;-45
2023/10/17 09:24:56;;;;;;;;;11.00;7.50;;;;;11.52;53.57;100178.56;6283959;20;2756604;-47
2023/10/17 09:27:24;;;;;;;;;11.00;9.00;;;;;11.23;54.61;100175.69;6279680;20;2769180;-47
2023/10/17 09:29:59;;;;;;;;;41.00;36.00;;;;;11.79;54.50;100181.44;6278088;20;2498229;-46
2023/10/17 09:32:40;;;;;;;;;10.50;10.50;;;;;11.34;56.00;100169.72;6284921;20;2791952;-45
2023/10/17 09:35:13;;;;;;;;;12.00;9.00;;;;;11.18;54.65;100178.63;6282616;20;2776583;-44
2023/10/17 09:37:51;;;;;;;;;10.67;10.67;;;;;10.39;57.98;100175.81;6282901;20;2794159;-45
2023/10/17 09:40:29;;;;;;;;;9.00;9.00;;;;;11.59;56.13;100177.25;6317525;20;2752460;-46
2023/10/17 09:42:59;;;;;;;;;10.00;10.00;;;;;12.07;54.54;100165.44;6280539;20;2790957;-46
2023/10/17 09:45:33;;;;;;;;;39.50;35.00;;;;;11.44;56.33;100160.16;6281469;20;2863375;-45
2023/10/17 09:48:07;;;;;;;;;9.80;9.80;;;;;11.82;55.25;100170.50;6302764;20;2781593;-44
2023/10/17 09:50:38;;;;;;;;;13.00;13.00;;;;;12.14;53.92;100160.56;6282565;20;2797213;-44
2023/10/17 09:53:16;;;;;;;;;8.50;8.50;;;;;12.32;52.99;100174.72;6290722;20;2748210;-47
2023/10/17 09:55:50;;;;;;;;;8.00;8.00;;;;;12.20;52.47;100175.47;6279938;20;2755675;-45
2023/10/17 09:58:31;;;;;;;;;8.20;8.20;;;;;12.27;52.10;100163.38;6309954;20;2738843;-44
2023/10/17 10:01:14;;;;;;;;;11.67;9.67;;;;;12.52;51.49;100160.88;6311586;20;2784963;-46
2023/10/17 10:03:48;;;;;;;;;10.00;10.00;;;;;11.70;53.25;100149.72;6313322;20;2783627;-46
2023/10/17 10:06:32;;;;;;;;;10.50;10.50;;;;;12.70;50.60;100155.31;6276570;20;2778428;-45
2023/10/17 10:09:13;;;;;;;;;7.00;5.50;;;;;12.92;50.52;100149.44;6287387;20;2734724;-45
2023/10/17 10:11:53;;;;;;;;;8.50;8.00;;;;;13.00;50.47;100149.81;6286267;20;2759777;-47
2023/10/17 10:14:33;;;;;;;;;9.40;9.20;;;;;12.71;50.00;100135.50;6307356;20;2748209;-44
2023/10/17 10:17:03;;;;;;;;;11.67;11.00;;;;;13.20;50.14;100135.03;6309502;20;2789887;-45
2023/10/17 10:19:57;;;;;;;;;8.00;8.00;;;;;13.01;49.67;100130.00;6315662;20;2752473;-44
2023/10/17 10:22:51;;;;;;;;;21.00;20.00;;;;;12.17;50.38;100127.22;6278641;20;2836804;-45
2023/10/17 10:25:22;;;;;;;;;11.67;10.33;;;;;12.84;50.75;100125.66;6311402;20;3514937;-45
2023/10/17 10:28:31;;;;;;;;;8.67;8.67;;;;;13.54;48.06;100114.84;6311569;20;3474277;-45
2023/10/17 10:30:59;;;;;;;;;10.00;10.00;;;;;13.18;48.07;100107.31;6307797;20;2790078;-46
2023/10/17 10:33:28;;;;;;;;;7.00;7.00;;;;;13.63;46.74;100110.63;6280582;20;2740949;-45
2023/10/17 10:35:56;;;;;;;;;6.00;6.00;;;;;13.54;46.11;100100.47;6279348;20;2743083;-45
2023/10/17 10:38:27;;;;;;;;;7.00;6.00;;;;;13.17;47.04;100103.75;6279845;20;2745168;-46
2023/10/17 10:40:55;;;;;;;;;6.50;6.50;;;;;13.19;46.43;100100.94;6282334;20;2744004;-45
2023/10/17 10:43:25;;;;;;;;;10.00;7.00;;;;;13.12;47.21;100091.53;6282939;20;2755549;-45
2023/10/17 10:45:55;;;;;;;;;19.00;14.00;;;;;13.37;46.28;100093.50;6277629;20;2494015;-45
2023/10/17 10:48:24;;;;;;;;;21.50;17.50;;;;;13.56;46.14;100087.72;6279518;20;2837791;-45
2023/10/17 10:50:57;;;;;;;;;47.33;38.33;;;;;13.24;46.76;100088.03;6280038;20;2851403;-44
2023/10/17 10:53:32;;;;;;;;;35.00;30.67;;;;;12.31;48.21;100092.22;6312108;20;3581634;-44
2023/10/17 10:56:13;;;;;;;;;9.50;8.50;;;;;12.78;48.89;100088.34;6279915;20;2762764;-45
2023/10/17 10:58:51;;;;;;;;;67.67;54.67;;;;;13.61;46.99;100080.19;6278525;20;3627484;-44
2023/10/17 11:01:27;;;;;;;;;29.00;27.67;;;;;13.53;45.92;100079.84;6282437;20;3597306;-45
2023/10/17 11:03:59;;;;;;;;;14.33;12.00;;;;;14.09;45.57;100075.09;6315962;20;3524390;-44
2023/10/17 11:06:29;;;;;;;;;6.20;6.20;;;;;13.38;46.34;100063.75;6339945;20;2748265;-45
2023/10/17 11:08:59;;;;;;;;;7.40;7.40;;;;;13.91;46.42;100065.59;6344077;20;2746221;-44
2023/10/17 11:11:32;;;;;;;;;8.86;8.29;;;;;13.87;46.31;100069.47;6358902;20;1798225;-46
2023/10/17 11:14:01;;;;;;;;;10.50;9.50;;;;;13.44;47.33;100067.00;6314784;20;2781621;-45
2023/10/17 11:16:33;;;;;;;;;10.80;10.80;;;;;13.81;46.75;100050.00;6307011;20;2791963;-45
2023/10/17 11:19:04;;;;;;;;;12.60;9.20;;;;;13.84;47.46;100060.59;6308991;20;2783668;-45
2023/10/17 11:21:32;;;;;;;;;8.50;8.00;;;;;12.42;48.25;100061.91;6285648;20;2752390;-46
2023/10/17 11:24:04;;;;;;;;;10.00;10.00;;;;;13.13;47.97;100059.06;6286115;20;2763918;-45
2023/10/17 11:26:37;;;;;;;;;11.00;8.50;;;;;13.77;47.37;100056.59;6309931;20;2770164;-45
2023/10/17 11:29:05;;;;;;;;;7.00;7.00;;;;;13.42;46.75;100052.75;6284952;20;2732578;-45
2023/10/17 11:31:33;;;;;;;;;8.50;8.00;;;;;12.59;47.81;100053.63;6287504;20;2735709;-46
2023/10/17 11:34:08;;;;;;;;;12.33;12.33;;;;;12.24;48.32;100058.53;6276667;20;3526286;-46
2023/10/17 11:36:55;;;;;;;;;9.00;9.00;;;;;12.42;48.61;100052.00;6280305;20;3463828;-44
2023/10/17 11:39:26;;;;;;;;;24.00;23.67;;;;;13.32;47.30;100052.50;6319275;20;3582589;-44
2023/10/17 11:41:59;;;;;;;;;10.40;10.40;;;;;13.57;46.38;100044.47;6307474;20;2788836;-45
2023/10/17 11:44:31;;;;;;;;;8.00;7.00;;;;;12.98;47.39;100048.44;6289299;20;2735759;-44
2023/10/17 11:47:02;;;;;;;;;7.00;7.00;;;;;12.89;46.58;100045.38;6284580;20;2730538;-47
2023/10/17 11:49:35;;;;;;;;;6.00;5.00;;;;;13.07;46.70;100042.47;6287474;20;2750307;-45
2023/10/17 11:52:12;;;;;;;;;6.00;6.00;;;;;13.16;46.05;100040.03;6282552;20;2746139;-48
2023/10/17 11:55:11;;;;;;;;;8.00;7.00;;;;;12.90;46.62;100030.06;6285969;20;2741956;-47
2023/10/17 11:57:50;;;;;;;;;6.67;6.50;;;;;13.49;44.91;100024.41;6329712;20;1796301;-47
2023/10/17 12:02:49;;;;;;;;;8.40;8.40;;;;;12.96;47.63;100027.84;6310057;20;2748270;-46
2023/10/17 12:05:19;;;;;;;;;7.00;7.00;;;;;12.92;46.90;100033.53;6287580;20;2740991;-47
2023/10/17 12:07:53;;;;;;;;;6.00;6.00;;;;;12.74;47.42;100035.59;6284895;20;2744001;-45
2023/10/17 12:10:26;;;;;;;;;7.00;6.00;;;;;13.56;46.96;100033.78;6286398;20;2742977;-46
2023/10/17 12:13:04;;;;;;;;;7.14;6.57;;;;;12.74;47.71;100036.50;6323678;20;3448169;-46
2023/10/17 12:15:35;;;;;;;;;9.00;9.00;;;;;13.14;47.87;100023.09;6357278;20;3452328;-45
2023/10/17 12:18:06;;;;;;;;;9.00;9.00;;;;;12.75;47.74;100029.28;6314268;20;2754458;-46
2023/10/17 12:20:40;;;;;;;;;7.00;7.00;;;;;12.96;47.02;100027.84;6287734;20;2736774;-45
2023/10/17 12:23:12;;;;;;;;;7.50;6.00;;;;;12.98;46.75;100022.38;6286952;20;2739881;-46
2023/10/17 12:25:46;;;;;;;;;25.17;20.33;;;;;13.21;47.03;100018.13;6305405;20;3582592;-45
2023/10/17 12:28:13;;;;;;;;;8.00;8.00;;;;;13.14;47.24;100011.44;6284392;20;2750401;-44
2023/10/17 12:30:41;;;;;;;;;9.00;9.00;;;;;12.83;48.33;100005.38;6284160;20;2746125;-45
2023/10/17 12:33:09;;;;;;;;;9.00;9.00;;;;;12.41;49.10;100006.34;6283918;20;2752578;-45
2023/10/17 12:35:37;;;;;;;;;12.50;10.50;;;;;12.81;49.02;100007.31;6284232;20;2798216;-44
2023/10/17 12:40:53;;;;;;;;;11.60;9.00;;;;;12.77;48.25;100004.91;6310470;20;2772271;-44
2023/10/17 12:43:27;;;;;;;;;15.50;13.50;;;;;13.25;47.77;100003.47;6282736;20;2807645;-46
2023/10/17 12:45:56;;;;;;;;;9.00;7.00;;;;;12.37;49.62;99996.72;6281545;20;2739913;-45
2023/10/17 12:48:26;;;;;;;;;9.60;8.00;;;;;13.07;47.78;99994.78;6307200;20;2760827;-45
2023/10/17 12:50:54;;;;;;;;;13.00;11.00;;;;;13.50;47.40;99996.44;6287020;20;2794003;-47
2023/10/17 12:53:22;;;;;;;;;9.00;9.00;;;;;12.57;48.02;99990.91;6287241;20;2746132;-45
2023/10/17 12:55:51;;;;;;;;;40.33;36.00;;;;;13.58;47.69;99978.75;6278534;20;3601741;-45
2023/10/17 12:58:22;;;;;;;;;33.00;31.00;;;;;13.71;46.55;99984.16;6315248;20;3588954;-45
2023/10/17 13:00:51;;;;;;;;;13.67;13.67;;;;;12.66;48.40;99968.75;6280421;20;3523319;-44
2023/10/17 13:03:22;;;;;;;;;7.00;7.00;;;;;13.23;47.74;99973.06;6310488;20;2736822;-47
2023/10/17 13:05:50;;;;;;;;;18.00;14.00;;;;;13.84;46.73;99976.91;6315246;20;2812900;-45
2023/10/17 13:08:19;;;;;;;;;14.50;12.50;;;;;13.06;47.50;99973.31;6282448;20;2793267;-44
2023/10/17 13:10:50;;;;;;;;;10.67;10.67;;;;;13.25;47.78;99976.50;6282522;20;2796314;-45
2023/10/17 13:13:18;;;;;;;;;10.00;8.50;;;;;12.77;48.67;99973.47;6320651;20;2764855;-46
2023/10/17 13:15:46;;;;;;;;;10.33;9.00;;;;;12.91;47.89;99972.53;6281702;20;2767977;-44
2023/10/17 13:18:16;;;;;;;;;10.00;9.00;;;;;12.91;48.20;99968.00;6313490;20;2773157;-45
2023/10/17 13:20:50;;;;;;;;;12.00;12.00;;;;;12.76;48.67;99970.84;6312648;20;2794225;-46
2023/10/17 13:23:37;;;;;;;;;7.00;7.00;;;;;12.55;49.66;99971.28;6285985;20;2728444;-44
2023/10/17 13:26:13;;;;;;;;;7.50;7.00;;;;;12.58;48.69;99970.22;6283075;20;2731520;-47
2023/10/17 13:28:43;;;;;;;;;7.80;7.80;;;;;12.60;48.20;99960.22;6308564;20;2735732;-44
2023/10/17 13:31:14;;;;;;;;;15.33;15.33;;;;;12.86;47.90;99964.75;6312083;20;3536769;-47
2023/10/17 13:33:53;;;;;;;;;11.67;11.67;;;;;13.11;47.63;99963.09;6310063;20;3523189;-46
2023/10/17 13:36:21;;;;;;;;;9.00;9.00;;;;;13.25;47.39;99959.47;6314031;20;2749393;-46